Time;durP1;ratioP1;P1;durP2;ratioP2;P2;SDS_P1;SDS_P2;PMS_P1;PMS_P2;Temp;Humidity;BMP_temperature;BMP_pressure;BME280_temperature;BME280_humidity;BME280_pressure;Samples;Min_cycle;Max_cycle;Signal;HPM_P1;HPM_P2
2023/05/13 00:00:36;;;;;;;6.80;2.40;;;;;;;;;;10308075;28;20073;-68
2023/05/13 00:05:35;;;;;;;3.33;2.10;;;;;;;;;;10301280;28;20482;-68
2023/05/13 00:10:34;;;;;;;2.90;2.15;;;;;;;;;;10300118;28;20069;-67
2023/05/13 00:15:32;;;;;;;4.88;2.42;;;;;;;;;;10305898;28;20076;-68
2023/05/13 00:20:30;;;;;;;3.70;2.20;;;;;;;;;;10305302;28;20094;-69
2023/05/13 00:25:30;;;;;;;8.13;2.70;;;;;;;;;;10305310;28;20086;-68
2023/05/13 00:30:28;;;;;;;6.25;2.38;;;;;;;;;;10301975;28;20076;-68
2023/05/13 00:35:26;;;;;;;3.80;2.35;;;;;;;;;;10304563;28;20083;-68
2023/05/13 00:40:24;;;;;;;3.53;2.22;;;;;;;;;;10303217;28;20075;-68
2023/05/13 00:45:25;;;;;;;2.60;1.98;;;;;;;;;;10300948;28;20084;-68
2023/05/13 00:50:23;;;;;;;2.90;2.60;;;;;;;;;;10302592;28;20509;-68
2023/05/13 00:55:21;;;;;;;2.92;2.03;;;;;;;;;;10309391;28;20060;-68
2023/05/13 01:00:20;;;;;;;3.22;2.45;;;;;;;;;;10302601;28;20071;-68
2023/05/13 01:05:22;;;;;;;2.05;1.85;;;;;;;;;;10299348;28;20080;-68
2023/05/13 01:10:25;;;;;;;2.78;2.33;;;;;;;;;;10301448;28;20064;-68
2023/05/13 01:15:25;;;;;;;3.38;2.50;;;;;;;;;;10305154;28;20075;-68
2023/05/13 01:20:26;;;;;;;3.28;2.42;;;;;;;;;;10306374;28;20087;-68
2023/05/13 01:25:25;;;;;;;3.90;2.78;;;;;;;;;;10302417;28;20072;-68
2023/05/13 01:30:24;;;;;;;4.65;2.35;;;;;;;;;;10301224;28;20083;-68
2023/05/13 01:35:24;;;;;;;4.38;2.50;;;;;;;;;;10299220;28;20076;-68
2023/05/13 01:40:22;;;;;;;4.85;2.58;;;;;;;;;;10299394;28;20501;-68
2023/05/13 01:45:35;;;;;;;3.70;2.58;;;;;;;;;;10303732;28;20096;-67
2023/05/13 01:50:34;;;;;;;2.53;2.00;;;;;;;;;;10315759;28;20080;-68
2023/05/13 01:55:32;;;;;;;3.97;2.53;;;;;;;;;;10296437;28;20072;-68
2023/05/13 02:00:33;;;;;;;5.28;2.67;;;;;;;;;;10303900;28;20045;-68
2023/05/13 02:05:33;;;;;;;2.67;2.47;;;;;;;;;;10300906;28;20072;-68
2023/05/13 02:10:35;;;;;;;3.78;2.50;;;;;;;;;;10299643;28;20048;-68
2023/05/13 02:15:33;;;;;;;4.15;2.17;;;;;;;;;;10300084;28;20075;-68
2023/05/13 02:20:33;;;;;;;2.72;2.25;;;;;;;;;;10285721;28;20080;-68
2023/05/13 02:25:31;;;;;;;5.10;2.58;;;;;;;;;;10296488;28;20080;-68
2023/05/13 02:30:29;;;;;;;4.78;2.40;;;;;;;;;;10295176;28;20052;-68
2023/05/13 02:35:30;;;;;;;3.42;2.97;;;;;;;;;;10299727;28;20072;-68
2023/05/13 02:40:32;;;;;;;5.72;2.50;;;;;;;;;;10299894;28;20068;-68
2023/05/13 02:45:30;;;;;;;5.05;2.58;;;;;;;;;;10294580;28;20091;-68
2023/05/13 02:50:28;;;;;;;2.97;2.20;;;;;;;;;;10302440;28;20528;-68
2023/05/13 02:55:27;;;;;;;3.38;2.10;;;;;;;;;;10294371;28;20048;-68
2023/05/13 03:00:29;;;;;;;5.25;2.53;;;;;;;;;;10302107;28;20072;-68
2023/05/13 03:05:27;;;;;;;4.55;2.58;;;;;;;;;;10301323;28;20506;-69
2023/05/13 03:10:27;;;;;;;4.00;2.53;;;;;;;;;;10296644;28;20080;-69
2023/05/13 03:15:25;;;;;;;2.45;2.10;;;;;;;;;;10299772;28;20068;-68
2023/05/13 03:20:25;;;;;;;5.25;2.60;;;;;;;;;;10298517;28;20085;-68
2023/05/13 03:25:23;;;;;;;5.63;2.75;;;;;;;;;;10303745;28;20084;-68
2023/05/13 03:30:27;;;;;;;3.67;2.90;;;;;;;;;;10294867;28;20091;-68
2023/05/13 03:35:35;;;;;;;3.40;2.35;;;;;;;;;;10297730;28;20068;-68
2023/05/13 03:40:33;;;;;;;4.97;3.63;;;;;;;;;;10298740;28;20087;-67
2023/05/13 03:45:31;;;;;;;5.47;3.45;;;;;;;;;;10300223;28;20071;-68
2023/05/13 03:50:36;;;;;;;3.50;3.20;;;;;;;;;;10289499;28;20063;-68
2023/05/13 03:55:34;;;;;;;7.78;4.13;;;;;;;;;;10289900;28;20509;-68
2023/05/13 04:00:33;;;;;;;9.85;4.00;;;;;;;;;;10296975;28;20063;-68
2023/05/13 04:05:31;;;;;;;4.65;3.30;;;;;;;;;;10292917;28;20510;-68
2023/05/13 04:10:31;;;;;;;10.50;3.83;;;;;;;;;;10293402;28;20076;-69
2023/05/13 04:15:30;;;;;;;4.93;3.60;;;;;;;;;;10297737;28;20072;-68
2023/05/13 04:20:29;;;;;;;10.00;3.95;;;;;;;;;;10285048;28;20083;-68
2023/05/13 04:25:27;;;;;;;5.72;4.13;;;;;;;;;;10291969;28;20100;-68
2023/05/13 04:30:26;;;;;;;7.15;4.00;;;;;;;;;;10292854;28;20049;-68
2023/05/13 04:35:25;;;;;;;4.95;4.15;;;;;;;;;;10316564;28;20084;-68
2023/05/13 04:40:27;;;;;;;8.85;4.35;;;;;;;;;;10301170;28;20044;-68
2023/05/13 04:45:31;;;;;;;8.68;5.20;;;;;;;;;;10308618;28;20084;-69
2023/05/13 04:50:31;;;;;;;13.23;4.50;;;;;;;;;;10299964;28;20064;-69
2023/05/13 04:55:32;;;;;;;6.85;4.80;;;;;;;;;;10299666;28;20040;-68
2023/05/13 05:00:32;;;;;;;9.18;4.72;;;;;;;;;;10304127;28;20075;-68
2023/05/13 05:05:30;;;;;;;6.53;4.70;;;;;;;;;;10301385;28;20073;-68
2023/05/13 05:10:29;;;;;;;10.15;4.53;;;;;;;;;;10298129;28;20457;-68
2023/05/13 05:15:31;;;;;;;11.50;4.93;;;;;;;;;;10298789;28;20526;-68
2023/05/13 05:20:31;;;;;;;7.68;5.57;;;;;;;;;;10296281;28;20056;-68
2023/05/13 05:25:32;;;;;;;12.27;6.85;;;;;;;;;;10296414;28;20182;-69
2023/05/13 05:30:38;;;;;;;16.05;7.93;;;;;;;;;;10301992;28;20076;-67
2023/05/13 05:35:41;;;;;;;11.98;5.25;;;;;;;;;;10304489;28;20095;-68
2023/05/13 05:40:44;;;;;;;10.98;6.30;;;;;;;;;;10294820;28;20441;-68
2023/05/13 05:45:43;;;;;;;13.88;7.78;;;;;;;;;;10296686;28;20489;-69
2023/05/13 05:50:46;;;;;;;12.07;6.03;;;;;;;;;;10297415;28;20079;-67
2023/05/13 05:55:48;;;;;;;8.55;5.60;;;;;;;;;;10294510;28;20048;-69
2023/05/13 06:00:54;;;;;;;5.90;5.25;;;;;;;;;;10291245;28;20079;-68
2023/05/13 06:05:55;;;;;;;9.68;4.93;;;;;;;;;;10303178;28;20075;-67
2023/05/13 06:10:53;;;;;;;8.05;4.07;;;;;;;;;;10304326;28;20064;-68
2023/05/13 06:15:53;;;;;;;7.63;4.55;;;;;;;;;;10309565;28;20103;-68
2023/05/13 06:20:51;;;;;;;7.00;4.07;;;;;;;;;;10262122;28;1117120;-68
2023/05/13 06:25:49;;;;;;;4.40;3.47;;;;;;;;;;10299284;28;20079;-69
2023/05/13 06:30:48;;;;;;;5.35;3.97;;;;;;;;;;10300054;28;20466;-68
2023/05/13 06:35:48;;;;;;;6.72;3.75;;;;;;;;;;10300431;28;20075;-68
2023/05/13 06:40:48;;;;;;;5.07;2.15;;;;;;;;;;10298937;28;20075;-69
2023/05/13 06:45:48;;;;;;;5.60;1.90;;;;;;;;;;10301155;28;20517;-68
2023/05/13 06:50:48;;;;;;;11.27;2.83;;;;;;;;;;10297829;28;20091;-68
2023/05/13 06:55:46;;;;;;;4.68;2.00;;;;;;;;;;10298120;28;20131;-68
2023/05/13 07:00:45;;;;;;;4.40;2.78;;;;;;;;;;10296689;28;20061;-66
2023/05/13 07:05:43;;;;;;;2.85;1.98;;;;;;;;;;10297116;28;20067;-66
2023/05/13 07:10:43;;;;;;;1.98;1.75;;;;;;;;;;10300942;28;20067;-69
2023/05/13 07:15:41;;;;;;;1.83;1.63;;;;;;;;;;10300827;28;20535;-68
2023/05/13 07:20:39;;;;;;;2.35;1.85;;;;;;;;;;10293691;28;20072;-69
2023/05/13 07:25:37;;;;;;;4.10;2.10;;;;;;;;;;10305004;28;20482;-69
2023/05/13 07:30:39;;;;;;;2.22;1.60;;;;;;;;;;10305687;28;20064;-69
2023/05/13 07:35:37;;;;;;;5.30;2.67;;;;;;;;;;10301640;28;20076;-70
2023/05/13 07:40:35;;;;;;;2.72;1.88;;;;;;;;;;10303466;28;20661;-68
2023/05/13 07:45:33;;;;;;;4.60;3.70;;;;;;;;;;10300838;28;20613;-69
2023/05/13 07:50:33;;;;;;;2.50;2.00;;;;;;;;;;10294981;28;20075;-67
2023/05/13 07:55:31;;;;;;;3.40;2.22;;;;;;;;;;10287096;28;20073;-69
2023/05/13 08:00:30;;;;;;;4.13;1.90;;;;;;;;;;10285947;28;20072;-69
2023/05/13 08:05:28;;;;;;;4.05;1.85;;;;;;;;;;10283231;28;20083;-69
2023/05/13 08:10:28;;;;;;;4.88;2.72;;;;;;;;;;10290080;28;20072;-69
2023/05/13 08:15:27;;;;;;;10.52;1.98;;;;;;;;;;10293969;28;20422;-69
2023/05/13 08:20:28;;;;;;;3.03;2.63;;;;;;;;;;10299835;28;20091;-69
2023/05/13 08:25:28;;;;;;;3.42;1.95;;;;;;;;;;10301009;28;20091;-69
2023/05/13 08:30:26;;;;;;;2.63;1.80;;;;;;;;;;10300501;28;20473;-69
2023/05/13 08:35:24;;;;;;;7.85;1.85;;;;;;;;;;10300411;28;20083;-69
2023/05/13 08:40:23;;;;;;;3.33;2.80;;;;;;;;;;10299268;28;20575;-69
2023/05/13 08:45:22;;;;;;;5.63;2.50;;;;;;;;;;10300609;28;20071;-69
2023/05/13 08:50:21;;;;;;;2.42;2.15;;;;;;;;;;10300189;28;20087;-69
2023/05/13 08:55:19;;;;;;;8.60;2.47;;;;;;;;;;10298953;28;20045;-69
2023/05/13 09:00:18;;;;;;;3.63;2.45;;;;;;;;;;10299310;28;20087;-69
2023/05/13 09:05:20;;;;;;;4.35;2.10;;;;;;;;;;10299339;28;20065;-69
2023/05/13 09:10:20;;;;;;;2.88;2.03;;;;;;;;;;10298176;28;20095;-69
2023/05/13 09:15:18;;;;;;;2.50;2.17;;;;;;;;;;10305423;28;20064;-69
2023/05/13 09:20:18;;;;;;;2.05;1.60;;;;;;;;;;10298604;28;20080;-69
2023/05/13 09:25:18;;;;;;;5.13;2.10;;;;;;;;;;10298510;28;20072;-69
2023/05/13 09:30:26;;;;;;;1.92;1.70;;;;;;;;;;10298972;28;20072;-69
2023/05/13 09:35:24;;;;;;;4.10;2.40;;;;;;;;;;10298703;28;20064;-69
2023/05/13 09:40:24;;;;;;;5.72;1.90;;;;;;;;;;10297971;28;20068;-69
2023/05/13 09:45:23;;;;;;;6.28;3.63;;;;;;;;;;10295445;28;20071;-69
2023/05/13 09:50:21;;;;;;;5.07;2.90;;;;;;;;;;10298244;28;20604;-70
2023/05/13 09:55:22;;;;;;;2.22;2.00;;;;;;;;;;10298175;28;20064;-69
2023/05/13 10:00:24;;;;;;;4.40;2.00;;;;;;;;;;10296022;28;20076;-69
2023/05/13 10:05:30;;;;;;;1.75;1.65;;;;;;;;;;10297806;28;20065;-69
2023/05/13 10:10:34;;;;;;;2.10;1.52;;;;;;;;;;10297360;28;20079;-69
2023/05/13 10:15:34;;;;;;;4.23;1.83;;;;;;;;;;10282025;28;20517;-69
2023/05/13 10:20:32;;;;;;;1.83;1.40;;;;;;;;;;10295839;28;20823;-70
2023/05/13 10:25:31;;;;;;;3.80;2.33;;;;;;;;;;10296175;28;20063;-70
2023/05/13 10:30:31;;;;;;;4.93;1.85;;;;;;;;;;10295699;28;20075;-70
2023/05/13 10:35:32;;;;;;;9.75;2.70;;;;;;;;;;10296240;28;20080;-70
2023/05/13 10:40:58;;;;;;;1.83;1.67;;;;;;;;;;10296368;28;20065;-71
2023/05/13 10:45:57;;;;;;;2.00;1.80;;;;;;;;;;10295655;28;20446;-70
2023/05/13 10:50:57;;;;;;;3.58;1.75;;;;;;;;;;10294942;28;20127;-70
2023/05/13 10:55:58;;;;;;;4.05;3.00;;;;;;;;;;10294410;28;20075;-71
2023/05/13 11:01:12;;;;;;;2.30;2.08;;;;;;;;;;10299223;28;20088;-69
2023/05/13 11:06:16;;;;;;;3.20;1.88;;;;;;;;;;10279022;28;22014;-69
2023/05/13 11:11:32;;;;;;;4.43;1.83;;;;;;;;;;10293616;28;20088;-70
2023/05/13 11:16:31;;;;;;;2.42;2.00;;;;;;;;;;10279841;28;20482;-69
2023/05/13 11:21:31;;;;;;;6.72;2.42;;;;;;;;;;10292267;28;20501;-69
2023/05/13 11:26:43;;;;;;;9.32;5.20;;;;;;;;;;10293335;28;20049;-68
2023/05/13 11:31:45;;;;;;;3.28;1.75;;;;;;;;;;10278313;28;20087;-69
2023/05/13 11:36:46;;;;;;;6.85;2.38;;;;;;;;;;10293351;28;20076;-70
2023/05/13 11:41:45;;;;;;;3.65;2.38;;;;;;;;;;10294770;28;20471;-69
2023/05/13 11:46:52;;;;;;;5.85;1.80;;;;;;;;;;10302104;28;20076;-69
2023/05/13 11:51:51;;;;;;;2.67;2.08;;;;;;;;;;10285652;28;20083;-70
2023/05/13 11:56:49;;;;;;;3.88;2.10;;;;;;;;;;10285605;28;20490;-70
2023/05/13 12:01:58;;;;;;;3.35;2.47;;;;;;;;;;10301137;28;20083;-70
2023/05/13 12:06:57;;;;;;;2.38;1.90;;;;;;;;;;10285499;28;20067;-70
2023/05/13 12:11:56;;;;;;;5.00;2.53;;;;;;;;;;10300762;28;20080;-70
2023/05/13 12:16:54;;;;;;;3.78;2.20;;;;;;;;;;10300340;28;20068;-70
2023/05/13 12:21:52;;;;;;;3.78;2.50;;;;;;;;;;10300806;28;20084;-70
2023/05/13 12:26:52;;;;;;;2.55;2.08;;;;;;;;;;10286111;28;20087;-70
2023/05/13 12:32:05;;;;;;;3.00;2.67;;;;;;;;;;10284501;28;20477;-70
2023/05/13 12:37:10;;;;;;;6.25;2.55;;;;;;;;;;10297470;28;20070;-70
2023/05/13 12:42:17;;;;;;;3.47;2.50;;;;;;;;;;10283215;28;20076;-70
2023/05/13 12:47:18;;;;;;;3.03;2.58;;;;;;;;;;10300025;28;20079;-69
2023/05/13 12:52:17;;;;;;;5.43;3.13;;;;;;;;;;10300266;28;20079;-69
2023/05/13 12:57:19;;;;;;;4.63;3.45;;;;;;;;;;10299187;28;20068;-69
2023/05/13 13:02:17;;;;;;;4.20;3.00;;;;;;;;;;10299904;28;20072;-69
2023/05/13 13:07:15;;;;;;;2.72;2.28;;;;;;;;;;10299223;28;20770;-70
2023/05/13 13:12:14;;;;;;;3.90;2.30;;;;;;;;;;10299551;28;20092;-70
2023/05/13 13:17:15;;;;;;;5.43;2.60;;;;;;;;;;10298890;28;20072;-70
2023/05/13 13:22:13;;;;;;;7.32;2.60;;;;;;;;;;10298496;28;20138;-70
2023/05/13 13:27:11;;;;;;;4.25;2.40;;;;;;;;;;10297959;28;20071;-70
2023/05/13 13:32:10;;;;;;;5.68;2.45;;;;;;;;;;10288380;28;20075;-70
2023/05/13 13:37:09;;;;;;;5.25;2.92;;;;;;;;;;10313291;28;20060;-70
2023/05/13 13:42:07;;;;;;;8.20;3.45;;;;;;;;;;10308505;28;20060;-70
2023/05/13 13:47:06;;;;;;;2.75;2.38;;;;;;;;;;10297619;28;20080;-69
2023/05/13 13:52:04;;;;;;;7.18;3.47;;;;;;;;;;10297059;28;20524;-70
2023/05/13 13:57:04;;;;;;;14.20;3.25;;;;;;;;;;10293897;28;20175;-70
2023/05/13 14:02:03;;;;;;;5.85;3.03;;;;;;;;;;10292450;28;20387;-70
2023/05/13 14:07:01;;;;;;;4.68;3.70;;;;;;;;;;10291116;28;20459;-69
2023/05/13 14:11:59;;;;;;;7.05;3.35;;;;;;;;;;10293573;28;20068;-70
2023/05/13 14:16:59;;;;;;;6.72;2.80;;;;;;;;;;10291410;28;20430;-70
2023/05/13 14:21:57;;;;;;;3.67;2.67;;;;;;;;;;10291755;28;20084;-70
2023/05/13 14:26:55;;;;;;;5.97;3.17;;;;;;;;;;10293655;28;20080;-70
2023/05/13 14:31:54;;;;;;;6.32;2.67;;;;;;;;;;10295314;28;20073;-70
2023/05/13 14:36:53;;;;;;;6.25;2.33;;;;;;;;;;10294706;28;20087;-70
2023/05/13 14:41:51;;;;;;;7.40;2.70;;;;;;;;;;10294934;28;20513;-70
2023/05/13 14:46:50;;;;;;;5.75;3.85;;;;;;;;;;10295010;28;20077;-69
2023/05/13 14:51:48;;;;;;;5.05;4.10;;;;;;;;;;10294267;28;20502;-69
2023/05/13 14:56:49;;;;;;;8.35;3.53;;;;;;;;;;10294165;28;20083;-70
2023/05/13 15:01:48;;;;;;;5.45;3.08;;;;;;;;;;10294176;28;20068;-70
2023/05/13 15:06:47;;;;;;;5.68;2.45;;;;;;;;;;10294143;28;20076;-69
2023/05/13 15:11:45;;;;;;;7.35;3.13;;;;;;;;;;10293597;28;20072;-70
2023/05/13 15:16:44;;;;;;;9.02;8.07;;;;;;;;;;10293955;28;20106;-69
2023/05/13 15:21:43;;;;;;;7.55;2.80;;;;;;;;;;10277643;28;20076;-69
2023/05/13 15:26:41;;;;;;;8.48;3.63;;;;;;;;;;10292587;28;20493;-69
2023/05/13 15:31:39;;;;;;;5.53;2.78;;;;;;;;;;10293143;28;20288;-68
2023/05/13 15:36:39;;;;;;;6.07;2.85;;;;;;;;;;10293875;28;20083;-69
2023/05/13 15:41:37;;;;;;;5.57;2.53;;;;;;;;;;10293107;28;20049;-69
2023/05/13 15:46:35;;;;;;;2.60;2.40;;;;;;;;;;10292936;28;20052;-68
2023/05/13 15:51:37;;;;;;;2.65;2.38;;;;;;;;;;10292879;28;20083;-69
2023/05/13 15:56:38;;;;;;;4.55;2.38;;;;;;;;;;10293162;28;20072;-69
2023/05/13 16:01:39;;;;;;;5.85;3.22;;;;;;;;;;10292536;28;20068;-69
2023/05/13 16:06:37;;;;;;;4.80;2.95;;;;;;;;;;10292722;28;20099;-70
2023/05/13 16:11:36;;;;;;;7.53;5.28;;;;;;;;;;10292860;28;20083;-68
2023/05/13 16:16:34;;;;;;;7.90;6.10;;;;;;;;;;10292369;28;20064;-69
2023/05/13 16:21:33;;;;;;;10.52;4.38;;;;;;;;;;10293100;28;20099;-69
2023/05/13 16:26:31;;;;;;;5.43;4.60;;;;;;;;;;10276539;28;20037;-71
2023/05/13 16:31:30;;;;;;;6.03;3.30;;;;;;;;;;10296307;28;20076;-69
2023/05/13 16:36:29;;;;;;;7.25;3.40;;;;;;;;;;10299501;28;20060;-69
2023/05/13 16:41:27;;;;;;;7.95;3.75;;;;;;;;;;10299281;28;20512;-69
2023/05/13 16:46:25;;;;;;;6.30;3.70;;;;;;;;;;10299393;28;20071;-69
2023/05/13 16:51:25;;;;;;;8.68;3.80;;;;;;;;;;10299150;28;20083;-69
2023/05/13 16:56:25;;;;;;;7.10;3.85;;;;;;;;;;10298910;28;20482;-69
2023/05/13 17:01:23;;;;;;;6.13;2.60;;;;;;;;;;10298717;28;20068;-69
2023/05/13 17:06:21;;;;;;;4.45;3.00;;;;;;;;;;10298697;28;20095;-69
2023/05/13 17:11:21;;;;;;;3.20;2.90;;;;;;;;;;10296944;28;20490;-68
2023/05/13 17:16:19;;;;;;;5.65;3.10;;;;;;;;;;10298900;28;20065;-69
2023/05/13 17:21:17;;;;;;;7.25;3.83;;;;;;;;;;10298268;28;20091;-69
2023/05/13 17:26:15;;;;;;;7.88;3.42;;;;;;;;;;10297757;28;20068;-69
2023/05/13 17:31:15;;;;;;;3.58;2.45;;;;;;;;;;10297640;28;20116;-70
2023/05/13 17:36:13;;;;;;;4.95;2.60;;;;;;;;;;10297383;28;20041;-68
2023/05/13 17:41:12;;;;;;;4.03;2.97;;;;;;;;;;10297298;28;20099;-69
2023/05/13 17:46:10;;;;;;;7.15;3.55;;;;;;;;;;10297632;28;20072;-68
2023/05/13 17:51:10;;;;;;;4.47;3.17;;;;;;;;;;10280726;28;20099;-68
2023/05/13 17:56:09;;;;;;;6.20;2.33;;;;;;;;;;10280137;28;20076;-69
2023/05/13 18:01:10;;;;;;;3.15;2.42;;;;;;;;;;10280227;28;20083;-68
2023/05/13 18:06:12;;;;;;;6.13;2.40;;;;;;;;;;10280863;28;20076;-68
2023/05/13 18:11:10;;;;;;;4.32;3.05;;;;;;;;;;10280602;28;20087;-70
2023/05/13 18:16:10;;;;;;;6.05;3.55;;;;;;;;;;10280394;28;20080;-69
2023/05/13 18:21:10;;;;;;;6.80;3.38;;;;;;;;;;10279434;28;20079;-69
2023/05/13 18:26:15;;;;;;;6.38;3.35;;;;;;;;;;10279223;28;20466;-69
2023/05/13 18:31:13;;;;;;;5.22;2.92;;;;;;;;;;10279962;28;20076;-68
2023/05/13 18:36:12;;;;;;;6.22;3.00;;;;;;;;;;10279549;28;20076;-70
2023/05/13 18:41:12;;;;;;;5.78;3.83;;;;;;;;;;10283587;28;20467;-69
2023/05/13 18:46:11;;;;;;;4.47;3.10;;;;;;;;;;10278943;28;20072;-69
2023/05/13 18:51:09;;;;;;;5.15;3.53;;;;;;;;;;10295127;28;20084;-69
2023/05/13 18:56:09;;;;;;;6.15;3.65;;;;;;;;;;10295002;28;20064;-69
2023/05/13 19:01:07;;;;;;;7.60;4.03;;;;;;;;;;10294445;28;20085;-69
2023/05/13 19:06:06;;;;;;;7.40;3.40;;;;;;;;;;10294630;28;20635;-69
2023/05/13 19:11:04;;;;;;;10.23;3.50;;;;;;;;;;10294460;28;20080;-69
2023/05/13 19:16:04;;;;;;;5.28;2.55;;;;;;;;;;10294312;28;20068;-69
2023/05/13 19:21:02;;;;;;;5.70;3.05;;;;;;;;;;10295182;28;20081;-69
2023/05/13 19:26:00;;;;;;;4.45;2.67;;;;;;;;;;10281785;28;20068;-69
2023/05/13 19:30:59;;;;;;;6.57;3.50;;;;;;;;;;10278138;28;20615;-68
2023/05/13 19:35:58;;;;;;;3.50;2.97;;;;;;;;;;10293180;28;20500;-69
2023/05/13 19:40:56;;;;;;;3.97;3.45;;;;;;;;;;10294183;28;20098;-68
2023/05/13 19:45:56;;;;;;;3.97;3.25;;;;;;;;;;10296161;28;20080;-69
2023/05/13 19:50:55;;;;;;;7.85;3.00;;;;;;;;;;10292786;28;20080;-68
2023/05/13 19:55:55;;;;;;;6.18;2.90;;;;;;;;;;10291721;28;20067;-69
2023/05/13 20:00:54;;;;;;;5.90;3.20;;;;;;;;;;10294459;28;20080;-69
2023/05/13 20:05:52;;;;;;;3.88;3.10;;;;;;;;;;10296801;28;20076;-69
2023/05/13 20:10:53;;;;;;;5.90;2.88;;;;;;;;;;10300357;28;20079;-68
2023/05/13 20:15:52;;;;;;;5.60;3.42;;;;;;;;;;10299559;28;20105;-67
2023/05/13 20:20:52;;;;;;;4.70;3.47;;;;;;;;;;10296776;28;20080;-67
2023/05/13 20:25:50;;;;;;;3.75;3.20;;;;;;;;;;10294152;28;20083;-68
2023/05/13 20:30:51;;;;;;;6.32;3.17;;;;;;;;;;10299813;28;20095;-67
2023/05/13 20:35:51;;;;;;;6.28;3.40;;;;;;;;;;10299945;28;20072;-67
2023/05/13 20:40:49;;;;;;;6.05;3.25;;;;;;;;;;10301331;28;20083;-67
2023/05/13 20:45:47;;;;;;;5.95;2.83;;;;;;;;;;10297599;28;20068;-66
2023/05/13 20:50:46;;;;;;;4.78;3.28;;;;;;;;;;10301581;28;20504;-67
2023/05/13 20:55:46;;;;;;;6.20;3.20;;;;;;;;;;10300302;28;20091;-68
2023/05/13 21:00:44;;;;;;;6.68;3.58;;;;;;;;;;10298392;28;20486;-67
2023/05/13 21:05:42;;;;;;;4.78;3.05;;;;;;;;;;10301774;28;20060;-67
2023/05/13 21:10:41;;;;;;;3.72;3.00;;;;;;;;;;10297272;28;20076;-68
2023/05/13 21:15:40;;;;;;;7.00;3.25;;;;;;;;;;10295444;28;20072;-68
2023/05/13 21:20:38;;;;;;;9.15;4.03;;;;;;;;;;10297255;28;20076;-69
2023/05/13 21:25:37;;;;;;;4.00;3.58;;;;;;;;;;10309403;28;20077;-68
2023/05/13 21:30:35;;;;;;;6.18;3.55;;;;;;;;;;10307058;28;20087;-68
2023/05/13 21:35:34;;;;;;;4.93;3.42;;;;;;;;;;10300317;28;20063;-68
2023/05/13 21:40:33;;;;;;;4.90;3.20;;;;;;;;;;10304652;28;20076;-68
2023/05/13 21:45:31;;;;;;;5.38;3.40;;;;;;;;;;10305027;28;20072;-68
2023/05/13 21:50:29;;;;;;;6.20;3.80;;;;;;;;;;10303213;28;20067;-68
2023/05/13 21:55:33;;;;;;;6.28;4.13;;;;;;;;;;10301433;28;20068;-68
2023/05/13 22:00:31;;;;;;;5.55;3.55;;;;;;;;;;10303259;28;20078;-69
2023/05/13 22:05:29;;;;;;;8.50;4.03;;;;;;;;;;10300318;28;20079;-69
2023/05/13 22:10:29;;;;;;;6.22;4.22;;;;;;;;;;10302153;28;20075;-67
2023/05/13 22:15:27;;;;;;;4.63;3.58;;;;;;;;;;10298816;28;20087;-68
2023/05/13 22:20:25;;;;;;;5.97;4.22;;;;;;;;;;10302594;28;20478;-68
2023/05/13 22:25:24;;;;;;;4.80;3.42;;;;;;;;;;10300607;28;20076;-68
2023/05/13 22:30:23;;;;;;;6.22;3.45;;;;;;;;;;10301178;28;20063;-68
2023/05/13 22:35:22;;;;;;;5.38;3.97;;;;;;;;;;10301247;28;20086;-69
2023/05/13 22:40:20;;;;;;;4.10;3.58;;;;;;;;;;10305436;28;20071;-68
2023/05/13 22:45:19;;;;;;;6.07;3.50;;;;;;;;;;10300206;28;20068;-69
2023/05/13 22:50:19;;;;;;;7.43;4.15;;;;;;;;;;10300083;28;20072;-69
2023/05/13 22:55:17;;;;;;;6.03;3.90;;;;;;;;;;10299641;28;20163;-69
2023/05/13 23:00:15;;;;;;;5.35;3.85;;;;;;;;;;10299319;28;20068;-69
2023/05/13 23:05:13;;;;;;;8.27;4.20;;;;;;;;;;10297320;28;20474;-69
2023/05/13 23:10:13;;;;;;;7.97;3.90;;;;;;;;;;10301013;28;20068;-69
2023/05/13 23:15:13;;;;;;;5.30;3.85;;;;;;;;;;10297552;28;20087;-69
2023/05/13 23:20:12;;;;;;;10.48;4.13;;;;;;;;;;10299622;28;20100;-69
2023/05/13 23:25:10;;;;;;;6.78;3.33;;;;;;;;;;10298011;28;20069;-69
2023/05/13 23:30:10;;;;;;;6.68;4.10;;;;;;;;;;10298352;28;20075;-68
2023/05/13 23:35:09;;;;;;;8.55;3.03;;;;;;;;;;10297644;28;20499;-67
2023/05/13 23:40:08;;;;;;;5.10;3.33;;;;;;;;;;10299743;28;20087;-67
2023/05/13 23:45:06;;;;;;;6.68;2.50;;;;;;;;;;10296983;28;20068;-68
2023/05/13 23:50:07;;;;;;;2.70;2.50;;;;;;;;;;10298968;28;20079;-68
2023/05/13 23:55:06;;;;;;;7.30;4.30;;;;;;;;;;10298646;28;20069;-69
